Time;durP1;ratioP1;P1;durP2;ratioP2;P2;SDS_P1;SDS_P2;PMS_P1;PMS_P2;Temp;Humidity;BMP_temperature;BMP_pressure;BME280_temperature;BME280_humidity;BME280_pressure;Samples;Min_cycle;Max_cycle;Signal;HPM_P1;HPM_P2
2022/12/22 03:28:04;;;;;;;39.70;28.43;;;;;;;0.86;88.46;99831.25;5052486;28;20223;-56
2022/12/22 03:30:31;;;;;;;39.73;27.87;;;;;;;0.97;89.00;99842.88;5052206;28;20191;-56
2022/12/22 03:32:59;;;;;;;35.83;25.70;;;;;;;0.93;89.34;99838.44;5052347;28;20184;-56
2022/12/22 03:35:26;;;;;;;37.43;26.67;;;;;;;0.94;89.39;99842.69;5052230;28;20717;-56
2022/12/22 03:37:53;;;;;;;41.17;28.43;;;;;;;0.97;88.73;99830.25;5060340;28;20203;-56
2022/12/22 03:40:20;;;;;;;43.27;29.23;;;;;;;0.90;89.17;99833.19;5071457;28;20214;-56
2022/12/22 03:48:16;;;;;;;48.72;33.88;;;;;;;0.90;89.88;99836.63;5071951;28;20534;-57
2022/12/22 03:50:43;;;;;;;42.03;29.37;;;;;;;0.89;89.86;99837.38;5072864;28;20191;-57
2022/12/22 03:53:10;;;;;;;41.40;31.27;;;;;;;0.98;89.79;99839.59;5072122;28;20195;-56
2022/12/22 03:55:37;;;;;;;46.17;32.37;;;;;;;1.01;89.33;99838.13;5071949;28;20576;-56
2022/12/22 03:58:03;;;;;;;46.20;32.23;;;;;;;0.99;88.93;99839.66;5072269;28;20184;-56
2022/12/22 04:00:30;;;;;;;46.73;31.03;;;;;;;0.98;88.82;99834.53;5072017;28;20211;-56
2022/12/22 04:02:57;;;;;;;48.43;31.03;;;;;;;0.96;89.38;99831.88;5071959;28;20179;-57
2022/12/22 04:05:26;;;;;;;45.10;30.33;;;;;;;0.94;88.96;99837.66;5071375;28;20195;-56
2022/12/22 04:07:53;;;;;;;44.30;30.40;;;;;;;0.90;89.16;99828.16;5071881;28;20187;-56
2022/12/22 04:13:03;;;;;;;51.50;32.00;;;;;;;0.90;89.23;99825.63;5065535;28;20190;-56
2022/12/22 04:15:32;;;;;;;48.13;31.83;;;;;;;0.93;89.33;99826.69;5051996;28;20200;-56
2022/12/22 04:18:00;;;;;;;48.40;31.47;;;;;;;0.87;89.74;99820.38;5051665;28;20184;-56
2022/12/22 04:20:29;;;;;;;46.97;33.17;;;;;;;0.90;89.58;99830.69;5051663;28;20690;-56
2022/12/22 04:22:56;;;;;;;45.73;31.77;;;;;;;0.70;89.35;99803.31;5051896;28;20184;-56
2022/12/22 04:25:23;;;;;;;50.30;32.87;;;;;;;0.82;89.36;99825.16;5051565;28;20555;-56
2022/12/22 04:27:50;;;;;;;46.07;32.47;;;;;;;0.78;89.43;99825.75;5051705;28;20218;-56
2022/12/22 04:30:17;;;;;;;42.73;30.80;;;;;;;0.82;89.46;99825.16;5051563;28;20241;-56
2022/12/22 04:32:44;;;;;;;49.03;31.93;;;;;;;0.84;89.06;99833.72;5062900;28;20191;-59
2022/12/22 04:35:11;;;;;;;46.78;34.72;;;;;;;0.85;89.75;99834.59;5056177;28;20423;-56
2022/12/22 04:37:39;;;;;;;41.80;31.57;;;;;;;0.88;89.44;99832.25;5051686;28;20185;-56
2022/12/22 04:40:07;;;;;;;39.43;28.37;;;;;;;0.90;88.68;99833.19;5063963;28;20215;-56
2022/12/22 04:42:34;;;;;;;43.53;30.83;;;;;;;0.87;88.90;99830.50;5066647;28;20242;-56
2022/12/22 04:45:00;;;;;;;39.50;28.93;;;;;;;0.92;88.50;99837.56;5059122;28;20218;-56
2022/12/22 04:47:27;;;;;;;39.87;27.37;;;;;;;0.87;89.15;99823.78;5061060;28;20704;-57
2022/12/22 04:49:54;;;;;;;42.17;28.93;;;;;;;0.87;88.82;99825.44;5058447;28;20562;-57
2022/12/22 04:52:21;;;;;;;39.57;28.97;;;;;;;0.70;88.52;99810.91;5065240;28;20736;-56
2022/12/22 04:54:49;;;;;;;42.23;28.27;;;;;;;0.83;88.59;99831.06;5054970;28;20196;-56
2022/12/22 04:57:16;;;;;;;37.77;26.93;;;;;;;0.84;88.65;99830.31;5054542;28;20184;-56
2022/12/22 04:59:43;;;;;;;44.43;29.60;;;;;;;0.88;88.49;99827.19;5054742;28;20188;-56
2022/12/22 05:02:10;;;;;;;41.90;29.30;;;;;;;0.85;88.47;99832.06;5067678;28;20341;-56
2022/12/22 05:04:36;;;;;;;39.10;28.07;;;;;;;0.83;88.47;99831.06;5074975;28;20191;-56
2022/12/22 05:07:03;;;;;;;48.57;30.47;;;;;;;0.89;88.75;99834.84;5058276;28;20559;-59
2022/12/22 05:09:30;;;;;;;46.67;28.27;;;;;;;0.84;88.07;99831.19;5074046;28;20192;-56
2022/12/22 05:11:58;;;;;;;44.00;30.23;;;;;;;0.80;88.14;99826.72;5071646;28;20192;-57
2022/12/22 05:14:25;;;;;;;44.23;30.77;;;;;;;0.77;87.98;99826.53;5075270;28;20188;-57
2022/12/22 05:16:52;;;;;;;42.07;27.80;;;;;;;0.73;88.64;99832.19;5074454;28;20530;-56
2022/12/22 05:19:19;;;;;;;45.17;29.23;;;;;;;0.75;88.22;99839.88;5074791;28;20187;-56
2022/12/22 05:21:45;;;;;;;37.73;25.57;;;;;;;0.73;88.45;99831.31;5074590;28;20226;-56
2022/12/22 05:24:12;;;;;;;37.13;26.80;;;;;;;0.68;87.95;99826.00;5074467;28;20198;-57
2022/12/22 05:26:39;;;;;;;37.33;26.30;;;;;;;0.65;89.25;99835.94;5074019;28;20199;-56
2022/12/22 05:29:07;;;;;;;41.80;26.67;;;;;;;0.64;88.99;99828.22;5074269;28;20685;-57
2022/12/22 05:31:35;;;;;;;37.27;24.93;;;;;;;0.71;88.92;99841.34;5074436;28;20188;-57
2022/12/22 05:34:02;;;;;;;41.23;26.43;;;;;;;0.71;88.49;99831.25;5074387;28;20180;-56
2022/12/22 05:36:28;;;;;;;32.57;23.43;;;;;;;0.70;87.89;99832.00;5074116;28;20195;-57
2022/12/22 05:38:55;;;;;;;44.67;24.93;;;;;;;0.72;88.73;99832.97;5074251;28;20194;-57
2022/12/22 05:41:22;;;;;;;35.70;25.40;;;;;;;0.73;87.92;99836.38;5073882;28;20215;-57
2022/12/22 05:43:49;;;;;;;44.45;29.13;;;;;;;0.76;88.47;99836.56;5073497;28;20438;-57
2022/12/22 05:46:17;;;;;;;39.53;25.30;;;;;;;0.71;88.14;99828.72;5074276;28;20191;-56
2022/12/22 05:48:43;;;;;;;34.70;24.77;;;;;;;0.71;88.33;99826.19;5074109;28;20254;-56
2022/12/22 05:51:10;;;;;;;32.27;22.13;;;;;;;0.68;88.56;99830.19;5074163;28;20192;-56
2022/12/22 05:53:38;;;;;;;33.40;23.10;;;;;;;0.71;87.97;99835.41;5073942;28;20179;-56
2022/12/22 05:56:05;;;;;;;37.40;23.27;;;;;;;0.81;88.30;99831.00;5073702;28;20184;-56
2022/12/22 05:58:32;;;;;;;36.37;23.33;;;;;;;0.60;87.71;99799.38;5072854;28;20711;-56
2022/12/22 06:01:00;;;;;;;39.00;24.17;;;;;;;0.77;87.91;99826.53;5074222;28;20272;-57
2022/12/22 06:03:29;;;;;;;37.53;23.67;;;;;;;0.75;87.31;99830.63;5073002;28;20188;-57
2022/12/22 06:05:57;;;;;;;37.67;24.10;;;;;;;0.77;87.54;99830.75;5073723;28;20183;-56
2022/12/22 06:08:24;;;;;;;43.40;25.10;;;;;;;0.76;87.50;99834.91;5074156;28;20191;-56
2022/12/22 06:10:51;;;;;;;33.50;22.43;;;;;;;0.78;87.44;99824.88;5073810;28;20268;-57
2022/12/22 06:13:18;;;;;;;37.03;22.77;;;;;;;0.74;87.75;99833.06;5072547;28;20191;-57
2022/12/22 06:15:44;;;;;;;33.50;21.57;;;;;;;0.78;87.12;99830.81;5073779;28;20180;-57
2022/12/22 06:18:11;;;;;;;29.30;21.13;;;;;;;0.77;87.52;99845.91;5073328;28;20241;-57
2022/12/22 06:20:39;;;;;;;34.57;21.03;;;;;;;0.77;87.33;99838.31;5073152;28;20245;-57
2022/12/22 06:23:06;;;;;;;36.07;21.97;;;;;;;0.85;87.48;99842.19;5073461;28;20187;-56
2022/12/22 06:25:33;;;;;;;37.37;21.67;;;;;;;0.82;87.20;99837.81;5073481;28;20194;-56
2022/12/22 06:28:00;;;;;;;33.03;22.60;;;;;;;0.88;87.03;99822.13;5073022;28;20219;-56
2022/12/22 06:30:27;;;;;;;37.23;24.37;;;;;;;1.11;86.80;99842.06;5073069;28;20234;-57
2022/12/22 06:32:54;;;;;;;39.47;26.25;;;;;;;1.19;86.34;99840.84;5073244;28;20929;-57
2022/12/22 06:35:20;;;;;;;45.33;27.37;;;;;;;1.26;85.85;99839.53;5073166;28;20188;-57
2022/12/22 06:37:49;;;;;;;36.20;23.73;;;;;;;1.17;85.70;99809.53;5072803;28;20210;-57
2022/12/22 06:40:16;;;;;;;32.50;23.70;;;;;;;1.37;85.07;99846.09;5073441;28;20191;-57
2022/12/22 06:45:27;;;;;;;36.33;24.30;;;;;;;1.33;85.05;99849.22;5073053;28;20211;-57
2022/12/22 06:47:54;;;;;;;37.50;25.60;;;;;;;1.38;85.25;99842.75;5068944;28;20188;-57
2022/12/22 06:50:20;;;;;;;36.43;25.03;;;;;;;1.70;84.57;99850.56;5067628;28;20180;-57
2022/12/22 06:52:49;;;;;;;34.17;24.03;;;;;;;2.17;84.42;99848.13;5072378;28;20179;-57
2022/12/22 06:55:15;;;;;;;42.90;27.47;;;;;;;2.62;80.93;99859.84;5072690;28;20196;-57
2022/12/22 06:57:42;;;;;;;34.60;23.53;;;;;;;2.53;78.78;99852.63;5068165;28;20719;-56
2022/12/22 07:00:13;;;;;;;35.70;24.20;;;;;;;2.66;78.04;99860.13;5067215;28;20204;-58
2022/12/22 07:02:40;;;;;;;36.60;25.92;;;;;;;2.68;77.85;99850.91;5071363;28;20430;-57
2022/12/22 07:05:07;;;;;;;36.23;23.67;;;;;;;2.39;78.40;99838.31;5067369;28;20192;-57
2022/12/22 07:07:34;;;;;;;36.53;27.20;;;;;;;2.45;78.86;99853.88;5071401;28;20429;-57
2022/12/22 07:10:04;;;;;;;33.70;24.10;;;;;;;2.47;78.89;99848.91;5071654;28;20188;-57
2022/12/22 07:12:31;;;;;;;31.73;23.33;;;;;;;2.51;79.12;99843.19;5071958;28;20180;-57
2022/12/22 07:14:58;;;;;;;37.07;23.53;;;;;;;2.55;79.14;99847.66;5071799;28;20188;-57
2022/12/22 07:17:24;;;;;;;27.80;20.60;;;;;;;2.50;79.23;99849.91;5071273;28;20180;-56
2022/12/22 07:19:51;;;;;;;34.00;23.10;;;;;;;2.51;79.33;99846.59;5073635;28;20179;-57
2022/12/22 07:22:18;;;;;;;30.37;20.93;;;;;;;2.52;79.69;99848.38;5066609;28;20272;-56
2022/12/22 07:24:45;;;;;;;29.77;19.77;;;;;;;2.54;79.56;99851.84;5071378;28;20245;-57
2022/12/22 07:27:13;;;;;;;32.00;22.40;;;;;;;2.47;79.34;99851.44;5070407;28;20203;-57
2022/12/22 07:29:40;;;;;;;27.80;20.33;;;;;;;2.52;80.01;99853.44;5072094;28;20192;-57
2022/12/22 07:32:07;;;;;;;28.63;21.37;;;;;;;2.55;79.51;99848.53;5071599;28;20192;-57
2022/12/22 07:34:34;;;;;;;29.43;22.17;;;;;;;2.49;79.68;99840.59;5070228;28;20192;-57
2022/12/22 07:37:01;;;;;;;34.00;24.30;;;;;;;2.61;80.22;99848.81;5061154;28;20275;-58
2022/12/22 07:39:28;;;;;;;32.83;23.73;;;;;;;2.70;79.84;99846.78;5051845;28;20184;-56
2022/12/22 07:44:48;;;;;;;32.47;22.63;;;;;;;2.75;79.24;99842.81;5032253;28;20657;-57
2022/12/22 07:47:15;;;;;;;32.97;22.83;;;;;;;2.87;78.99;99847.66;5072074;28;20198;-56
2022/12/22 07:52:26;;;;;;;38.97;25.73;;;;;;;3.00;78.86;99860.19;5070577;28;20780;-57
2022/12/22 07:54:53;;;;;;;37.30;23.40;;;;;;;3.08;77.87;99853.84;5070735;28;20192;-57
2022/12/22 07:57:19;;;;;;;38.63;26.53;;;;;;;3.13;77.57;99854.94;5070843;28;20194;-57
2022/12/22 07:59:47;;;;;;;42.87;28.33;;;;;;;3.19;77.33;99851.84;5071789;28;20186;-59
2022/12/22 08:02:14;;;;;;;42.80;28.20;;;;;;;3.23;77.27;99848.69;5071386;28;20209;-56
2022/12/22 08:04:41;;;;;;;37.83;27.57;;;;;;;2.96;76.41;99813.50;5070052;28;20199;-57
2022/12/22 08:07:08;;;;;;;42.33;27.37;;;;;;;3.09;76.75;99852.19;5071509;28;20241;-57
2022/12/22 08:09:35;;;;;;;44.63;30.70;;;;;;;2.98;77.71;99852.50;5071414;28;20518;-57
2022/12/22 08:12:01;;;;;;;36.87;27.40;;;;;;;2.82;77.99;99838.94;5071406;28;20192;-57
2022/12/22 08:14:28;;;;;;;40.80;27.17;;;;;;;2.89;78.03;99853.69;5070093;28;20183;-57
2022/12/22 08:16:56;;;;;;;39.90;27.57;;;;;;;2.88;78.33;99840.13;5070766;28;20668;-56
2022/12/22 08:19:23;;;;;;;42.20;28.97;;;;;;;2.87;78.11;99845.13;5071653;28;20188;-56
2022/12/22 08:21:50;;;;;;;38.53;27.60;;;;;;;2.96;78.65;99846.50;5071486;28;20211;-57
2022/12/22 08:24:16;;;;;;;43.17;29.07;;;;;;;3.14;78.38;99853.28;5071588;28;20187;-57
2022/12/22 08:26:48;;;;;;;41.00;27.73;;;;;;;3.24;78.51;99841.13;5073093;28;20237;-56
2022/12/22 08:29:21;;;;;;;43.07;29.90;;;;;;;3.41;77.69;99849.59;5075699;28;20195;-57
2022/12/22 08:31:47;;;;;;;48.60;30.70;;;;;;;3.54;77.13;99840.09;5075469;28;20189;-56
2022/12/22 08:34:16;;;;;;;46.83;31.67;;;;;;;3.61;76.03;99846.38;5074974;28;20592;-57
2022/12/22 08:36:47;;;;;;;49.67;32.27;;;;;;;3.69;75.86;99845.06;5071135;28;20667;-57
2022/12/22 08:39:16;;;;;;;48.88;37.72;;;;;;;3.81;76.31;99832.97;5065899;28;20443;-56
2022/12/22 08:41:50;;;;;;;48.70;33.63;;;;;;;3.96;75.22;99831.16;5071736;28;20219;-57
2022/12/22 08:44:18;;;;;;;45.70;32.30;;;;;;;4.00;73.85;99824.53;5075324;28;20247;-57
2022/12/22 08:46:45;;;;;;;50.53;33.60;;;;;;;3.97;73.75;99810.03;5075181;28;20197;-57
2022/12/22 08:49:12;;;;;;;45.57;31.70;;;;;;;4.14;73.77;99813.34;5062917;28;20207;-57
2022/12/22 08:51:40;;;;;;;42.33;31.87;;;;;;;4.14;73.80;99818.44;5055078;28;20195;-57
2022/12/22 08:54:07;;;;;;;50.57;32.47;;;;;;;4.19;73.37;99806.81;5057434;28;20275;-56
2022/12/22 08:56:34;;;;;;;52.70;34.90;;;;;;;4.15;72.47;99800.69;5063545;28;20547;-57
2022/12/22 08:59:03;;;;;;;49.17;34.63;;;;;;;3.97;72.64;99766.81;5066781;28;20295;-57
2022/12/22 09:01:31;;;;;;;54.77;34.97;;;;;;;4.34;72.59;99794.78;5074029;28;20218;-56
2022/12/22 09:03:59;;;;;;;60.97;36.30;;;;;;;4.35;72.21;99791.44;5074916;28;20195;-56
2022/12/22 09:06:26;;;;;;;53.97;40.00;;;;;;;4.38;72.51;99793.25;5073729;28;20429;-57
2022/12/22 09:08:56;;;;;;;55.90;36.93;;;;;;;4.39;71.69;99783.16;5074475;28;20192;-56
2022/12/22 09:11:23;;;;;;;59.60;41.08;;;;;;;4.47;72.32;99788.59;5074246;28;20803;-56
2022/12/22 09:13:52;;;;;;;53.13;36.53;;;;;;;4.55;70.55;99785.59;5074818;28;20264;-58
2022/12/22 09:16:19;;;;;;;52.33;35.17;;;;;;;4.64;71.22;99788.50;5074307;28;20190;-57
2022/12/22 09:18:47;;;;;;;53.37;35.50;;;;;;;4.75;70.83;99778.81;5074486;28;20302;-56
2022/12/22 09:21:13;;;;;;;47.25;34.30;;;;;;;4.85;70.69;99782.63;5073790;28;20430;-56
2022/12/22 09:23:40;;;;;;;33.00;25.40;;;;;;;4.87;69.82;99779.34;5074405;28;20184;-56
2022/12/22 09:26:10;;;;;;;38.45;29.27;;;;;;;4.76;70.01;99755.97;5074429;28;20430;-57
2022/12/22 09:28:37;;;;;;;36.73;27.40;;;;;;;4.83;69.78;99757.13;5074422;28;20300;-57
2022/12/22 09:31:05;;;;;;;42.47;28.50;;;;;;;5.04;69.14;99770.75;5074817;28;20608;-57
2022/12/22 09:33:35;;;;;;;42.87;29.53;;;;;;;5.02;69.84;99764.72;5074043;28;20195;-58
2022/12/22 09:36:06;;;;;;;37.90;27.03;;;;;;;4.72;70.31;99738.81;5074071;28;20185;-57
2022/12/22 09:38:32;;;;;;;37.57;27.43;;;;;;;5.04;68.78;99760.56;5073155;28;20250;-56
2022/12/22 09:40:59;;;;;;;38.40;27.67;;;;;;;5.08;68.17;99771.75;5073960;28;20189;-57
2022/12/22 09:43:29;;;;;;;42.40;29.13;;;;;;;5.19;68.59;99761.19;5073935;28;20295;-57
2022/12/22 09:45:57;;;;;;;38.10;28.20;;;;;;;5.34;68.90;99759.28;5073819;28;20205;-57
2022/12/22 09:48:26;;;;;;;44.33;30.00;;;;;;;5.45;68.01;99752.06;5074260;28;20606;-56
2022/12/22 09:50:53;;;;;;;43.70;29.63;;;;;;;5.44;67.59;99763.06;5073888;28;20531;-56
2022/12/22 09:53:22;;;;;;;51.33;34.35;;;;;;;5.45;67.91;99751.19;5073222;28;20896;-56
2022/12/22 09:55:50;;;;;;;47.73;32.00;;;;;;;5.51;68.16;99746.34;5073590;28;20247;-57
2022/12/22 09:58:21;;;;;;;53.42;39.03;;;;;;;5.55;68.05;99732.94;5058337;28;20942;-57
2022/12/22 10:00:53;;;;;;;51.90;34.07;;;;;;;5.74;66.53;99737.94;5060692;28;20186;-57
2022/12/22 10:03:31;;;;;;;48.30;35.23;;;;;;;5.79;65.72;99714.38;5056785;28;20214;-57
2022/12/22 10:06:08;;;;;;;54.30;31.53;;;;;;;6.00;65.51;99729.66;5067243;28;20194;-57
2022/12/22 10:08:37;;;;;;;44.10;31.40;;;;;;;6.06;64.60;99726.47;5073899;28;20272;-56
2022/12/22 10:11:04;;;;;;;54.20;31.77;;;;;;;6.12;64.66;99717.38;5073580;28;20191;-56
2022/12/22 10:13:31;;;;;;;48.37;30.73;;;;;;;6.28;63.63;99717.09;5059696;28;20262;-57
2022/12/22 10:15:59;;;;;;;47.87;31.50;;;;;;;6.29;63.27;99703.53;5072217;28;20194;-58
2022/12/22 10:18:28;;;;;;;52.30;32.60;;;;;;;6.48;63.17;99711.03;5073263;28;20560;-57
2022/12/22 10:21:09;;;;;;;46.63;32.27;;;;;;;6.58;61.83;99704.56;5073360;28;20187;-57
2022/12/22 10:23:38;;;;;;;51.73;32.33;;;;;;;6.32;61.61;99695.97;5073041;28;20592;-58
2022/12/22 10:26:10;;;;;;;44.67;30.20;;;;;;;6.29;61.76;99684.81;5072832;28;20205;-57
2022/12/22 10:28:39;;;;;;;41.37;29.83;;;;;;;6.48;60.76;99702.53;5064729;28;20230;-57
2022/12/22 10:31:15;;;;;;;43.17;29.90;;;;;;;6.54;60.50;99697.59;5053141;28;20560;-56
2022/12/22 10:33:43;;;;;;;44.17;30.03;;;;;;;6.60;60.80;99694.41;5053124;28;20190;-56
2022/12/22 10:36:10;;;;;;;47.37;31.70;;;;;;;6.42;60.13;99698.06;5052812;28;20186;-56
2022/12/22 10:38:39;;;;;;;46.73;34.67;;;;;;;6.46;60.85;99693.91;5057737;28;20193;-58
2022/12/22 10:41:14;;;;;;;52.10;33.50;;;;;;;6.57;60.49;99681.53;5053155;28;20191;-57
2022/12/22 10:43:47;;;;;;;48.83;34.17;;;;;;;6.58;60.97;99684.16;5052506;28;20688;-57
2022/12/22 10:46:16;;;;;;;45.33;30.33;;;;;;;6.64;59.89;99676.72;5055018;28;20260;-57
2022/12/22 10:48:43;;;;;;;51.17;34.40;;;;;;;6.68;59.67;99668.31;5072379;28;20183;-57
2022/12/22 10:51:13;;;;;;;57.47;36.20;;;;;;;6.56;60.03;99632.19;5070863;28;20225;-58
2022/12/22 10:53:44;;;;;;;61.00;40.63;;;;;;;6.65;60.63;99668.22;5059022;28;20570;-57
2022/12/22 10:56:24;;;;;;;59.83;44.87;;;;;;;6.77;60.47;99662.66;5071529;28;20948;-57
2022/12/22 10:58:52;;;;;;;50.17;36.30;;;;;;;6.84;59.74;99668.03;5072674;28;20710;-56
2022/12/22 11:01:30;;;;;;;47.97;35.50;;;;;;;6.79;59.72;99649.13;5072378;28;20645;-56
2022/12/22 11:03:57;;;;;;;50.33;33.27;;;;;;;6.73;59.52;99623.38;5072458;28;20234;-57
2022/12/22 11:06:24;;;;;;;44.57;30.77;;;;;;;6.79;58.20;99620.16;5072513;28;20182;-57
2022/12/22 11:08:51;;;;;;;55.00;34.37;;;;;;;6.92;58.70;99641.06;5072231;28;20520;-55
2022/12/22 11:11:34;;;;;;;46.53;31.57;;;;;;;6.95;58.32;99637.75;5072512;28;20212;-56
2022/12/22 11:14:16;;;;;;;37.00;26.27;;;;;;;6.98;57.45;99631.03;5073083;28;20561;-56
2022/12/22 11:16:50;;;;;;;43.93;33.00;;;;;;;6.94;57.65;99619.00;5071707;28;20421;-58
2022/12/22 11:19:39;;;;;;;42.53;28.60;;;;;;;7.09;57.32;99621.16;5072414;28;20547;-57
2022/12/22 11:22:18;;;;;;;37.43;26.67;;;;;;;7.08;57.44;99612.66;5072161;28;20213;-58
2022/12/22 11:24:57;;;;;;;38.43;27.53;;;;;;;7.09;57.54;99609.25;5072516;28;20196;-62
2022/12/22 11:27:38;;;;;;;38.50;27.00;;;;;;;7.23;57.31;99607.13;5072372;28;20228;-57
2022/12/22 11:30:10;;;;;;;35.53;25.50;;;;;;;7.29;57.23;99598.78;5071872;28;20191;-56
2022/12/22 11:33:10;;;;;;;38.97;28.43;;;;;;;7.35;57.49;99594.75;5071166;28;20430;-57
2022/12/22 11:35:51;;;;;;;31.70;25.17;;;;;;;7.42;56.83;99595.78;5067619;28;20447;-57
2022/12/22 11:38:29;;;;;;;52.77;28.53;;;;;;;7.52;56.95;99593.56;5069411;28;20174;-57
2022/12/22 11:41:04;;;;;;;41.00;27.00;;;;;;;7.57;56.72;99597.13;5071475;28;20205;-57
2022/12/22 11:43:44;;;;;;;34.63;25.30;;;;;;;7.52;56.31;99595.25;5071705;28;20264;-56
2022/12/22 11:46:22;;;;;;;39.33;25.73;;;;;;;7.57;56.53;99586.03;5071702;28;20186;-57
2022/12/22 11:49:05;;;;;;;35.95;28.15;;;;;;;7.61;56.99;99591.28;5071522;28;20437;-57
2022/12/22 11:51:48;;;;;;;34.70;24.37;;;;;;;7.58;56.01;99591.19;5070316;28;20182;-57
2022/12/22 11:54:37;;;;;;;33.77;24.80;;;;;;;7.59;56.02;99595.47;5070543;28;20855;-57
2022/12/22 11:57:13;;;;;;;34.63;24.87;;;;;;;7.49;56.54;99596.03;5071184;28;20291;-57
2022/12/22 11:59:49;;;;;;;35.50;23.80;;;;;;;7.49;56.38;99595.16;5070081;28;20219;-57
2022/12/22 12:02:36;;;;;;;36.97;23.77;;;;;;;7.52;56.50;99596.13;5069975;28;20211;-57
2022/12/22 12:05:34;;;;;;;37.97;24.93;;;;;;;7.50;56.88;99587.53;5069144;28;20213;-57
2022/12/22 12:08:09;;;;;;;40.13;24.30;;;;;;;7.57;56.66;99593.69;5068984;28;20188;-57
2022/12/22 12:10:43;;;;;;;30.00;22.33;;;;;;;7.55;57.20;99592.78;5069846;28;20272;-56
2022/12/22 12:13:22;;;;;;;31.80;22.10;;;;;;;7.57;56.95;99580.91;5070652;28;20193;-57
2022/12/22 12:15:54;;;;;;;30.20;24.30;;;;;;;7.60;57.31;99579.31;5070480;28;20201;-56
2022/12/22 12:18:54;;;;;;;29.27;22.37;;;;;;;7.58;56.98;99575.84;5070392;28;20673;-57
2022/12/22 12:21:29;;;;;;;29.00;21.97;;;;;;;7.62;57.42;99567.44;5070789;28;20186;-57
2022/12/22 12:24:17;;;;;;;32.70;22.67;;;;;;;7.60;56.78;99558.88;5071043;28;20224;-57
2022/12/22 12:26:52;;;;;;;29.70;21.30;;;;;;;7.72;57.06;99572.00;5071110;28;20191;-56
2022/12/22 12:29:22;;;;;;;28.20;22.73;;;;;;;7.79;56.19;99561.94;5071303;28;20742;-57
2022/12/22 12:31:54;;;;;;;36.10;24.73;;;;;;;7.84;56.68;99568.91;5071339;28;20468;-56
2022/12/22 12:34:23;;;;;;;41.47;29.47;;;;;;;7.88;57.27;99569.88;5071471;28;20289;-57
2022/12/22 12:36:57;;;;;;;35.13;26.00;;;;;;;7.88;57.83;99562.22;5071401;28;20191;-56
2022/12/22 12:39:33;;;;;;;37.00;25.67;;;;;;;7.78;58.93;99550.84;5071332;28;20731;-56
2022/12/22 12:42:16;;;;;;;42.83;30.87;;;;;;;7.84;59.18;99563.81;5071301;28;20664;-58
2022/12/22 12:44:44;;;;;;;47.17;30.73;;;;;;;7.79;60.07;99560.25;5072036;28;20241;-57
2022/12/22 12:47:23;;;;;;;41.07;28.10;;;;;;;7.80;60.43;99566.25;5071237;28;20300;-58
2022/12/22 12:50:02;;;;;;;40.60;31.23;;;;;;;7.69;60.74;99546.31;5070374;28;20437;-57
2022/12/22 12:53:15;;;;;;;38.47;30.40;;;;;;;7.94;60.45;99572.63;5071120;28;20184;-57
2022/12/22 12:56:06;;;;;;;32.20;24.57;;;;;;;7.92;57.65;99569.13;5071472;28;20187;-57
2022/12/22 12:58:51;;;;;;;32.83;24.43;;;;;;;7.98;58.11;99569.31;5070996;28;20215;-56
2022/12/22 13:01:52;;;;;;;37.00;28.53;;;;;;;7.87;58.75;99569.00;5071085;28;20233;-56
2022/12/22 13:04:51;;;;;;;35.87;25.90;;;;;;;7.92;57.99;99564.88;5071001;28;20217;-56
2022/12/22 13:07:56;;;;;;;36.50;27.15;;;;;;;7.96;57.69;99571.84;5039385;28;20433;-56
2022/12/22 13:10:24;;;;;;;31.73;23.67;;;;;;;7.89;57.69;99581.81;5071134;28;20191;-57
2022/12/22 13:12:54;;;;;;;28.70;23.20;;;;;;;7.85;58.13;99575.78;5073738;28;20193;-56
2022/12/22 13:15:29;;;;;;;33.97;24.40;;;;;;;7.84;58.29;99568.91;5074491;28;20180;-57
2022/12/22 13:17:57;;;;;;;31.47;23.83;;;;;;;7.83;58.59;99576.56;5074822;28;20194;-57
2022/12/22 13:20:26;;;;;;;37.07;25.40;;;;;;;7.87;59.38;99570.69;5074108;28;20239;-57
2022/12/22 13:22:55;;;;;;;37.17;25.92;;;;;;;7.90;58.87;99574.22;5069005;28;20445;-57
2022/12/22 13:25:24;;;;;;;33.07;23.13;;;;;;;7.90;58.82;99574.22;5073202;28;20608;-57
2022/12/22 13:27:58;;;;;;;34.33;24.47;;;;;;;7.94;58.86;99580.28;5065196;28;20575;-57
2022/12/22 13:30:29;;;;;;;32.83;24.53;;;;;;;7.97;58.41;99581.22;5064973;28;20190;-57
2022/12/22 13:32:56;;;;;;;32.43;24.70;;;;;;;7.99;58.48;99563.38;5054329;28;20192;-58
2022/12/22 13:35:32;;;;;;;39.33;27.83;;;;;;;8.08;58.17;99566.16;5054366;28;20188;-59
2022/12/22 13:37:58;;;;;;;36.07;27.43;;;;;;;8.10;58.02;99567.94;5054164;28;20274;-57
2022/12/22 13:40:27;;;;;;;37.00;25.03;;;;;;;7.66;57.10;99502.78;5054250;28;20225;-57
2022/12/22 13:42:56;;;;;;;31.13;23.77;;;;;;;8.08;57.08;99572.16;5053849;28;20211;-57
2022/12/22 13:45:33;;;;;;;30.30;23.60;;;;;;;7.99;57.74;99563.38;5058313;28;20206;-56
2022/12/22 13:48:05;;;;;;;35.63;24.83;;;;;;;8.08;57.33;99569.59;5053973;28;20208;-55
2022/12/22 13:50:36;;;;;;;35.27;27.50;;;;;;;8.09;57.86;99568.78;5054338;28;20214;-56
2022/12/22 13:53:06;;;;;;;38.27;26.57;;;;;;;8.10;58.04;99569.66;5053951;28;20203;-57
2022/12/22 13:55:35;;;;;;;37.73;26.40;;;;;;;8.10;57.94;99567.94;5053752;28;20191;-57
2022/12/22 13:58:06;;;;;;;43.07;29.30;;;;;;;8.17;58.05;99561.28;5053737;28;20189;-56
2022/12/22 14:00:35;;;;;;;37.13;29.27;;;;;;;8.12;58.46;99557.75;5053420;28;20601;-56
2022/12/22 14:03:04;;;;;;;34.53;25.60;;;;;;;8.04;58.08;99551.56;5053665;28;20223;-56
2022/12/22 14:05:32;;;;;;;44.93;29.10;;;;;;;8.00;58.67;99555.72;5053303;28;20195;-55
2022/12/22 14:08:04;;;;;;;43.97;30.50;;;;;;;8.01;59.00;99552.34;5053601;28;20207;-55
2022/12/22 14:10:35;;;;;;;36.43;26.03;;;;;;;7.99;58.79;99556.56;5053543;28;20198;-56
2022/12/22 14:13:07;;;;;;;35.10;25.97;;;;;;;8.01;58.42;99557.47;5053323;28;20192;-56
2022/12/22 14:15:36;;;;;;;35.30;26.37;;;;;;;8.04;58.50;99554.13;5053476;28;20199;-58
2022/12/22 14:18:03;;;;;;;42.30;30.20;;;;;;;8.04;58.93;99554.13;5053266;28;20574;-56
2022/12/22 14:20:34;;;;;;;38.38;29.40;;;;;;;8.03;58.46;99555.81;5053685;28;20427;-56
2022/12/22 14:23:06;;;;;;;36.17;28.77;;;;;;;7.92;58.34;99531.63;5066910;28;20219;-56
2022/12/22 14:25:36;;;;;;;36.37;27.23;;;;;;;7.95;58.51;99548.75;5070673;28;20183;-57
2022/12/22 14:28:06;;;;;;;43.83;29.27;;;;;;;7.93;59.01;99548.72;5072656;28;20230;-57
2022/12/22 14:30:37;;;;;;;35.73;24.17;;;;;;;7.87;58.30;99547.66;5073018;28;20197;-57
2022/12/22 14:33:26;;;;;;;32.67;25.13;;;;;;;7.62;58.88;99523.09;5072553;28;20245;-57
2022/12/22 14:36:04;;;;;;;39.88;28.15;;;;;;;7.68;59.23;99553.97;5069640;28;20778;-57
2022/12/22 14:38:39;;;;;;;34.47;25.03;;;;;;;7.64;59.48;99560.69;5069883;28;20503;-57
2022/12/22 14:41:39;;;;;;;36.00;25.23;;;;;;;7.64;59.47;99553.00;5071634;28;20183;-56
2022/12/22 14:43:58;;;;;;;40.30;25.17;;;;;;;7.60;59.63;99548.66;5071103;28;20207;-56
2022/12/22 14:46:26;;;;;;;34.20;25.93;;;;;;;7.53;60.17;99556.06;5067021;28;20190;-57
2022/12/22 14:48:53;;;;;;;40.33;27.90;;;;;;;7.44;60.18;99549.03;5068398;28;20183;-56
2022/12/22 14:51:20;;;;;;;39.33;27.73;;;;;;;7.40;60.68;99548.88;5072022;28;20179;-56
2022/12/22 14:53:52;;;;;;;41.63;28.67;;;;;;;7.34;60.93;99547.00;5071945;28;20191;-56
2022/12/22 14:56:20;;;;;;;46.83;30.87;;;;;;;7.16;60.91;99531.13;5072624;28;20664;-56
2022/12/22 14:58:48;;;;;;;53.00;32.63;;;;;;;7.27;61.20;99557.00;5072548;28;20590;-56
2022/12/22 15:01:22;;;;;;;56.20;31.93;;;;;;;7.24;61.72;99555.22;5072559;28;20182;-57
2022/12/22 15:04:05;;;;;;;68.83;36.20;;;;;;;7.23;61.69;99560.28;5072581;28;20300;-56
2022/12/22 15:06:36;;;;;;;51.53;34.00;;;;;;;7.18;62.20;99560.16;5072121;28;20183;-56
2022/12/22 15:09:10;;;;;;;51.07;36.07;;;;;;;7.15;62.12;99557.50;5072419;28;20181;-55
2022/12/22 15:11:42;;;;;;;68.57;43.27;;;;;;;7.08;62.38;99546.25;5072367;28;20190;-56
2022/12/22 15:14:13;;;;;;;78.60;47.90;;;;;;;7.03;63.18;99555.41;5072253;28;20194;-56
2022/12/22 15:16:40;;;;;;;71.07;46.00;;;;;;;6.97;63.58;99556.94;5072158;28;20273;-56
2022/12/22 15:19:10;;;;;;;74.73;46.03;;;;;;;6.98;64.03;99558.66;5072211;28;20192;-57
2022/12/22 15:21:40;;;;;;;84.60;47.93;;;;;;;6.97;63.55;99556.94;5072263;28;20640;-56
2022/12/22 15:24:11;;;;;;;79.37;48.27;;;;;;;6.88;63.99;99544.75;5071789;28;20220;-56